createdAt,value
2019-01-20T00:01:44.600Z,78.76
2019-01-20T00:04:48.252Z,78.01
2019-01-20T00:07:52.119Z,78.17
2019-01-20T00:10:55.981Z,77.40
2019-01-20T00:13:59.711Z,78.22
2019-01-20T00:17:03.306Z,77.62
2019-01-20T00:20:07.468Z,77.30
2019-01-20T00:23:11.110Z,78.44
2019-01-20T00:26:14.806Z,78.70
2019-01-20T00:29:18.616Z,78.43
2019-01-20T00:32:22.329Z,78.38
2019-01-20T00:35:26.091Z,79.15
2019-01-20T00:38:30.026Z,78.24
2019-01-20T00:41:33.665Z,79.52
2019-01-20T00:44:37.458Z,78.95
2019-01-20T00:47:41.311Z,79.14
2019-01-20T00:50:45.364Z,78.45
2019-01-20T00:53:48.957Z,78.68
2019-01-20T00:56:52.711Z,78.91
2019-01-20T00:59:56.368Z,78.96
2019-01-20T01:03:00.673Z,78.67
2019-01-20T01:06:04.314Z,79.88
2019-01-20T01:09:08.859Z,79.72
2019-01-20T01:12:16.768Z,79.24
2019-01-20T01:15:21.265Z,79.11
2019-01-20T01:18:25.200Z,80.12
2019-01-20T01:21:28.949Z,79.71
2019-01-20T01:24:32.621Z,79.65
2019-01-20T01:27:36.437Z,79.81
2019-01-20T01:30:40.421Z,79.15
2019-01-20T01:33:44.227Z,80.03
2019-01-20T01:36:47.921Z,79.41
2019-01-20T01:39:51.565Z,79.46
2019-01-20T01:42:55.538Z,79.05
2019-01-20T01:45:59.875Z,78.97
2019-01-20T01:49:03.463Z,79.36
2019-01-20T01:52:07.340Z,79.75
2019-01-20T01:55:11.558Z,79.55
2019-01-20T01:58:15.210Z,79.03
2019-01-20T02:01:19.009Z,79.27
2019-01-20T02:04:22.559Z,78.65
2019-01-20T02:07:26.305Z,78.81
2019-01-20T02:10:30.117Z,78.36
2019-01-20T02:13:33.876Z,78.91
2019-01-20T02:16:37.686Z,78.79
2019-01-20T02:19:41.424Z,78.96
2019-01-20T02:22:45.358Z,79.49
2019-01-20T02:25:49.009Z,79.64
2019-01-20T02:28:52.613Z,79.57
2019-01-20T02:31:56.169Z,79.11
2019-01-20T02:34:59.885Z,79.63
2019-01-20T02:38:03.602Z,78.87
2019-01-20T02:41:07.276Z,79.04
2019-01-20T02:44:11.727Z,78.41
2019-01-20T02:47:15.473Z,78.17
2019-01-20T02:50:19.279Z,78.03
2019-01-20T02:53:23.657Z,78.48
2019-01-20T02:56:27.423Z,78.88
2019-01-20T02:59:30.931Z,78.22
2019-01-20T03:02:34.518Z,78.56
2019-01-20T03:05:38.133Z,78.54
2019-01-20T03:08:41.972Z,78.70
2019-01-20T03:11:45.566Z,79.18
2019-01-20T03:14:49.165Z,78.58
2019-01-20T03:17:52.873Z,78.97
2019-01-20T03:20:56.521Z,78.92
2019-01-20T03:24:00.220Z,77.84
2019-01-20T03:27:04.037Z,78.32
2019-01-20T03:30:10.843Z,77.81
2019-01-20T03:33:14.495Z,77.68
2019-01-20T03:36:18.216Z,78.48
2019-01-20T03:39:21.847Z,78.07
2019-01-20T03:42:25.650Z,77.84
2019-01-20T03:45:31.328Z,77.80
2019-01-20T03:48:35.148Z,77.26
2019-01-20T03:51:38.892Z,77.61
2019-01-20T03:54:42.541Z,77.89
2019-01-20T03:57:46.338Z,77.27
2019-01-20T04:00:50.062Z,77.34
2019-01-20T04:03:54.460Z,77.31
2019-01-20T04:06:58.628Z,77.34
2019-01-20T04:10:02.438Z,77.90
2019-01-20T04:13:06.999Z,77.58
2019-01-20T04:16:10.805Z,77.84
2019-01-20T04:19:14.556Z,77.95
2019-01-20T04:22:18.229Z,78.32
2019-01-20T04:25:22.371Z,77.72
2019-01-20T04:28:26.404Z,77.63
2019-01-20T04:31:30.103Z,77.62
2019-01-20T04:34:33.786Z,77.41
2019-01-20T04:37:37.464Z,77.79
2019-01-20T04:40:41.096Z,77.75
2019-01-20T04:43:45.062Z,77.30
2019-01-20T04:46:48.730Z,76.97
2019-01-20T04:49:52.884Z,76.69
2019-01-20T04:52:56.521Z,77.18
2019-01-20T04:56:00.110Z,77.18
2019-01-20T04:59:04.111Z,77.47
2019-01-20T05:02:07.853Z,77.14
2019-01-20T05:05:11.703Z,77.55
2019-01-20T05:08:15.379Z,78.27
2019-01-20T05:11:19.010Z,78.37
2019-01-20T05:14:22.895Z,78.43
2019-01-20T05:17:26.606Z,78.41
2019-01-20T05:20:30.202Z,78.98
2019-01-20T05:23:33.811Z,78.81
2019-01-20T05:26:37.419Z,78.41
2019-01-20T05:29:41.038Z,77.66
2019-01-20T05:32:44.824Z,78.50
2019-01-20T05:35:48.567Z,78.89
2019-01-20T05:38:52.139Z,78.31
2019-01-20T05:41:55.743Z,78.36
2019-01-20T05:44:59.452Z,78.09
2019-01-20T05:48:03.048Z,78.71
2019-01-20T05:51:06.741Z,79.33
2019-01-20T05:54:10.405Z,80.10
2019-01-20T05:57:14.112Z,80.23
2019-01-20T06:00:21.123Z,81.08
2019-01-20T06:03:24.870Z,80.47
2019-01-20T06:06:28.440Z,79.98
2019-01-20T06:09:32.081Z,80.87
2019-01-20T06:12:35.725Z,80.64
2019-01-20T06:15:39.372Z,80.16
2019-01-20T06:18:42.985Z,80.46
2019-01-20T06:21:46.647Z,81.15
2019-01-20T06:24:50.236Z,80.72
2019-01-20T06:27:53.796Z,81.69
2019-01-20T06:30:57.552Z,82.59
2019-01-20T06:34:01.237Z,81.92
2019-01-20T06:37:04.985Z,81.49
2019-01-20T06:40:08.801Z,81.16
2019-01-20T06:43:12.460Z,80.76
2019-01-20T06:46:16.091Z,80.73
2019-01-20T06:49:19.712Z,80.71
2019-01-20T06:52:23.500Z,79.91
2019-01-20T06:55:27.273Z,79.92
2019-01-20T06:58:30.859Z,80.00
2019-01-20T07:01:35.562Z,79.67
2019-01-20T07:04:39.109Z,79.93
2019-01-20T07:07:42.800Z,79.71
2019-01-20T07:10:46.494Z,79.60
2019-01-20T07:13:50.123Z,80.88
2019-01-20T07:16:53.709Z,80.32
2019-01-20T07:19:57.436Z,80.33
2019-01-20T07:23:01.620Z,80.39
2019-01-20T07:26:05.392Z,81.38
2019-01-20T07:29:09.005Z,80.72
2019-01-20T07:32:12.571Z,80.89
2019-01-20T07:35:16.308Z,80.75
2019-01-20T07:38:19.899Z,80.64
2019-01-20T07:41:23.509Z,80.12
2019-01-20T07:44:27.109Z,80.43
2019-01-20T07:47:30.714Z,80.16
2019-01-20T07:50:34.358Z,79.74
2019-01-20T07:53:37.959Z,79.06
2019-01-20T07:56:41.557Z,79.62
2019-01-20T07:59:45.946Z,79.81
2019-01-20T08:02:49.644Z,80.54
2019-01-20T08:05:53.403Z,81.63
2019-01-20T08:08:57.131Z,82.06
2019-01-20T08:12:00.634Z,81.84
2019-01-20T08:15:04.747Z,81.86
2019-01-20T08:18:08.276Z,81.54
2019-01-20T08:21:11.908Z,81.57
2019-01-20T08:24:15.479Z,81.31
2019-01-20T08:27:19.068Z,80.44
2019-01-20T08:30:24.737Z,80.22
2019-01-20T08:33:28.225Z,80.21
2019-01-20T08:36:31.852Z,79.91
2019-01-20T08:39:35.602Z,80.06
2019-01-20T08:42:40.185Z,79.93
2019-01-20T08:46:15.658Z,79.62
2019-01-20T08:49:19.653Z,79.34
2019-01-20T08:52:23.472Z,79.25
2019-01-20T08:55:27.202Z,80.18
2019-01-20T08:58:30.871Z,80.95
2019-01-20T09:01:34.551Z,81.90
2019-01-20T09:04:38.260Z,82.48
2019-01-20T09:07:41.907Z,82.63
2019-01-20T09:10:45.500Z,82.58
2019-01-20T09:13:49.127Z,81.78
2019-01-20T09:16:52.842Z,81.57
2019-01-20T09:19:56.507Z,81.80
2019-01-20T09:23:00.212Z,81.49
2019-01-20T09:26:03.971Z,81.88
2019-01-20T09:29:09.356Z,82.35
2019-01-20T09:32:13.354Z,82.81
2019-01-20T09:35:17.136Z,82.48
2019-01-20T09:38:20.865Z,82.58
2019-01-20T09:41:24.521Z,83.39
2019-01-20T09:44:28.119Z,83.43
2019-01-20T09:47:31.824Z,83.49
2019-01-20T09:50:35.517Z,83.41
2019-01-20T09:53:41.599Z,82.86
2019-01-20T09:56:45.475Z,80.98
2019-01-20T09:59:49.232Z,80.07
2019-01-20T10:02:53.427Z,78.61
2019-01-20T10:06:02.389Z,78.11
2019-01-20T10:09:11.561Z,77.13
2019-01-20T10:12:15.398Z,76.13
2019-01-20T10:15:20.817Z,74.41
2019-01-20T10:18:26.547Z,74.95
2019-01-20T10:21:30.229Z,74.63
2019-01-20T10:24:33.826Z,74.19
2019-01-20T10:27:37.573Z,74.36
2019-01-20T10:30:41.175Z,74.27
2019-01-20T10:33:45.177Z,74.32
2019-01-20T10:36:49.042Z,74.59
2019-01-20T10:39:52.841Z,74.45
2019-01-20T10:42:56.621Z,74.22
2019-01-20T10:56:34.149Z,74.24
2019-01-20T10:59:37.925Z,73.70
2019-01-20T11:02:41.607Z,73.89
2019-01-20T11:05:45.462Z,73.23
2019-01-20T11:08:53.340Z,72.32
2019-01-20T11:11:59.962Z,71.69
2019-01-20T11:15:04.075Z,72.59
2019-01-20T11:18:07.750Z,72.59
2019-01-20T11:21:11.443Z,71.63
2019-01-20T11:24:15.116Z,71.20
2019-01-20T11:27:18.989Z,70.71
2019-01-20T11:30:22.671Z,70.05
2019-01-20T11:33:28.424Z,70.50
2019-01-20T11:36:37.831Z,71.34
2019-01-20T11:39:46.576Z,70.35
2019-01-20T11:42:52.779Z,69.62
2019-01-20T11:45:56.635Z,69.63
2019-01-20T11:49:07.132Z,70.09
2019-01-20T11:52:17.074Z,70.47
2019-01-20T11:55:26.753Z,69.67
2019-01-20T11:58:34.119Z,70.15
2019-01-20T12:01:41.448Z,70.26
2019-01-20T12:04:49.377Z,70.45
2019-01-20T12:07:54.242Z,70.49
2019-01-20T12:10:56.610Z,70.82
2019-01-20T12:14:00.200Z,71.75
2019-01-20T12:17:03.856Z,71.16
2019-01-20T12:20:08.465Z,70.97
2019-01-20T12:23:12.064Z,71.21
2019-01-20T12:26:15.802Z,70.76
2019-01-20T12:29:19.501Z,71.03
2019-01-20T12:32:23.074Z,70.09
2019-01-20T12:35:26.708Z,70.49
2019-01-20T12:38:30.291Z,70.48
2019-01-20T12:41:33.882Z,70.89
2019-01-20T12:44:37.486Z,70.62
2019-01-20T12:47:41.135Z,70.53
2019-01-20T12:50:44.725Z,70.70
2019-01-20T12:53:48.320Z,70.60
2019-01-20T12:56:51.967Z,70.22
2019-01-20T12:59:56.567Z,71.29
2019-01-20T13:03:00.339Z,71.10
2019-01-20T13:06:03.968Z,69.90
2019-01-20T13:09:08.969Z,70.95
2019-01-20T13:12:12.650Z,71.73
2019-01-20T13:15:20.071Z,71.43
2019-01-20T13:18:23.745Z,71.22
2019-01-20T13:21:27.356Z,71.20
2019-01-20T13:24:30.943Z,71.79
2019-01-20T13:27:34.528Z,71.59
2019-01-20T13:30:38.187Z,71.52
2019-01-20T13:33:41.885Z,71.48
2019-01-20T13:36:45.933Z,71.57
2019-01-20T13:39:49.591Z,71.04
2019-01-20T13:42:53.176Z,71.20
2019-01-20T13:45:56.914Z,71.74
2019-01-20T13:49:02.503Z,71.84
2019-01-20T13:52:06.469Z,71.63
2019-01-20T13:55:10.388Z,71.53
2019-01-20T13:58:13.934Z,72.01
2019-01-20T14:01:17.564Z,71.94
2019-01-20T14:04:21.172Z,71.72
2019-01-20T14:07:24.779Z,72.78
2019-01-20T14:10:28.648Z,72.22
2019-01-20T14:13:32.244Z,72.25
2019-01-20T14:16:35.870Z,72.22
2019-01-20T14:19:39.535Z,71.76
2019-01-20T14:22:43.178Z,71.96
2019-01-20T14:25:46.927Z,71.63
2019-01-20T14:28:50.570Z,71.68
2019-01-20T14:31:54.129Z,71.66
2019-01-20T14:34:57.796Z,71.84
2019-01-20T14:38:01.434Z,72.51
2019-01-20T14:41:05.097Z,72.42
2019-01-20T14:44:10.737Z,71.25
2019-01-20T14:47:15.454Z,72.05
2019-01-20T14:50:22.064Z,71.33
2019-01-20T14:53:25.722Z,71.53
2019-01-20T14:56:29.382Z,72.32
2019-01-20T14:59:33.054Z,72.40
2019-01-20T15:02:36.663Z,71.85
2019-01-20T15:05:40.346Z,72.34
2019-01-20T15:08:43.945Z,72.41
2019-01-20T15:11:47.557Z,71.95
2019-01-20T15:14:51.191Z,72.09
2019-01-20T15:17:54.821Z,71.59
2019-01-20T15:20:58.404Z,72.46
2019-01-20T15:24:01.988Z,73.01
2019-01-20T15:27:05.643Z,72.37
2019-01-20T15:30:14.071Z,72.83
2019-01-20T15:33:17.632Z,73.00
2019-01-20T15:36:21.135Z,73.06
2019-01-20T15:39:24.746Z,72.71
2019-01-20T15:42:28.372Z,72.59
2019-01-20T15:45:31.937Z,73.30
2019-01-20T15:52:05.911Z,73.13
2019-01-20T15:55:09.560Z,73.56
2019-01-20T15:58:13.270Z,73.90
2019-01-20T16:01:16.896Z,73.89
2019-01-20T16:04:24.071Z,73.69
2019-01-20T16:07:24.118Z,73.94
2019-01-20T16:10:28.233Z,73.76
2019-01-20T16:13:31.942Z,74.48
2019-01-20T16:16:35.582Z,74.64
2019-01-20T16:19:41.803Z,74.46
2019-01-20T16:22:46.419Z,74.36
2019-01-20T16:25:51.725Z,74.61
2019-01-20T16:28:55.418Z,74.93
2019-01-20T16:31:59.122Z,75.08
2019-01-20T16:35:02.782Z,75.09
2019-01-20T16:38:08.021Z,75.10
2019-01-20T16:41:11.727Z,75.19
2019-01-20T16:44:15.505Z,75.40
2019-01-20T16:47:19.133Z,75.81
2019-01-20T16:50:23.754Z,76.37
2019-01-20T16:53:27.321Z,76.66
2019-01-20T16:56:31.118Z,76.53
2019-01-20T16:59:34.817Z,76.31
2019-01-20T17:02:38.436Z,76.50
2019-01-20T17:05:42.115Z,77.29
2019-01-20T17:08:45.723Z,76.79
2019-01-20T17:11:49.288Z,76.53
2019-01-20T17:14:52.898Z,75.99
2019-01-20T17:17:56.613Z,76.15
2019-01-20T17:24:38.071Z,77.04
2019-01-20T17:31:15.455Z,77.40
2019-01-20T17:34:26.317Z,77.32
2019-01-20T17:37:32.627Z,75.93
2019-01-20T17:40:36.388Z,75.75
2019-01-20T17:43:41.633Z,76.14
2019-01-20T17:46:47.137Z,75.96
2019-01-20T17:49:53.654Z,76.03
2019-01-20T17:52:58.449Z,76.31
2019-01-20T17:56:02.101Z,75.80
2019-01-20T17:59:05.785Z,76.20
2019-01-20T18:02:09.566Z,75.80
2019-01-20T18:05:14.125Z,76.04
2019-01-20T18:08:17.883Z,75.10
2019-01-20T18:11:21.471Z,75.59
2019-01-20T18:14:25.638Z,75.29
2019-01-20T18:17:31.347Z,74.49
2019-01-20T18:20:34.983Z,73.74
2019-01-20T18:23:39.606Z,73.65
2019-01-20T18:26:43.232Z,73.77
2019-01-20T18:29:47.402Z,74.13
2019-01-20T18:32:52.984Z,73.23
2019-01-20T18:35:56.618Z,73.14
2019-01-20T18:39:00.245Z,73.25
2019-01-20T18:42:03.940Z,72.90
2019-01-20T18:45:08.619Z,73.38
2019-01-20T18:48:12.242Z,73.50
2019-01-20T18:51:15.897Z,73.75
2019-01-20T18:54:19.503Z,73.17
2019-01-20T18:57:23.110Z,73.21
2019-01-20T19:00:31.152Z,73.80
2019-01-20T19:03:36.093Z,73.94
2019-01-20T19:06:39.785Z,74.12
2019-01-20T19:09:43.534Z,74.17
2019-01-20T19:12:47.331Z,74.67
2019-01-20T19:15:50.931Z,74.53
2019-01-20T19:18:54.722Z,74.73
2019-01-20T19:22:00.346Z,75.11
2019-01-20T19:25:04.117Z,73.66
2019-01-20T19:35:18.444Z,75.22
2019-01-20T19:38:22.187Z,73.75
2019-01-20T19:41:25.720Z,74.28
2019-01-20T19:44:29.322Z,74.32
2019-01-20T19:47:32.950Z,74.06
2019-01-20T19:50:36.775Z,74.32
2019-01-20T19:53:40.496Z,74.96
2019-01-20T19:56:44.174Z,74.91
2019-01-20T19:59:47.902Z,74.58
2019-01-20T20:02:51.646Z,75.03
2019-01-20T20:05:55.271Z,74.77
2019-01-20T20:08:58.853Z,74.27
2019-01-20T20:12:02.449Z,74.90
2019-01-20T20:15:08.280Z,74.76
2019-01-20T20:18:12.011Z,74.52
2019-01-20T20:21:15.749Z,74.25
2019-01-20T20:24:25.298Z,74.86
2019-01-20T20:27:23.031Z,74.12
2019-01-20T20:30:29.043Z,74.99
2019-01-20T20:33:33.267Z,74.56
2019-01-20T20:36:38.746Z,75.09
2019-01-20T20:39:42.349Z,75.32
2019-01-20T20:42:46.065Z,75.22
2019-01-20T20:45:49.591Z,75.33
2019-01-20T20:48:53.222Z,75.30
2019-01-20T20:51:56.906Z,75.60
2019-01-20T20:55:01.523Z,75.29
2019-01-20T20:58:05.422Z,75.72
2019-01-20T21:01:10.019Z,75.81
2019-01-20T21:04:13.594Z,75.58
2019-01-20T21:07:17.201Z,75.58
2019-01-20T21:10:23.872Z,75.85
2019-01-20T21:13:27.538Z,75.32
2019-01-20T21:16:37.669Z,75.04
2019-01-20T21:19:34.875Z,76.02
2019-01-20T21:22:38.637Z,75.52
2019-01-20T21:25:43.165Z,75.62
2019-01-20T21:28:47.720Z,76.03
2019-01-20T21:31:51.190Z,76.06
2019-01-20T21:34:57.845Z,76.59
2019-01-20T21:38:07.408Z,76.38
2019-01-20T21:41:12.667Z,76.14
2019-01-20T21:44:15.077Z,76.42
2019-01-20T21:47:18.616Z,76.37
2019-01-20T21:50:24.494Z,76.39
2019-01-20T21:53:28.047Z,76.07
2019-01-20T21:56:36.502Z,76.09
2019-01-20T21:59:40.193Z,75.96
2019-01-20T22:02:45.046Z,76.35
2019-01-20T22:05:48.913Z,75.84
2019-01-20T22:08:52.551Z,76.55
2019-01-20T22:11:56.217Z,76.86
2019-01-20T22:14:59.814Z,76.99
2019-01-20T22:21:12.341Z,76.59
2019-01-20T22:24:16.923Z,76.40
2019-01-20T22:27:20.517Z,76.30
2019-01-20T22:30:26.040Z,76.83
2019-01-20T22:33:30.566Z,76.97
2019-01-20T22:36:34.267Z,77.04
2019-01-20T22:39:37.890Z,76.58
2019-01-20T22:42:41.487Z,76.86
2019-01-20T22:45:45.201Z,76.93
2019-01-20T22:48:48.865Z,77.15
2019-01-20T22:55:23.624Z,76.44
2019-01-20T22:58:27.242Z,76.52
2019-01-20T23:01:30.890Z,76.89
2019-01-20T23:04:34.586Z,76.99
2019-01-20T23:07:38.173Z,77.04
2019-01-20T23:10:41.818Z,77.37
2019-01-20T23:13:45.545Z,77.23
2019-01-20T23:16:49.424Z,76.66
2019-01-20T23:19:53.140Z,76.68
2019-01-20T23:22:56.713Z,76.24
2019-01-20T23:26:00.357Z,76.40
2019-01-20T23:29:04.201Z,76.40
2019-01-20T23:32:07.864Z,76.34
2019-01-20T23:35:11.515Z,76.17
2019-01-20T23:38:15.282Z,75.64
2019-01-20T23:41:18.956Z,76.45
2019-01-20T23:44:23.039Z,76.46
2019-01-20T23:47:26.687Z,75.99
2019-01-20T23:50:30.285Z,76.42
2019-01-20T23:53:33.987Z,76.26
2019-01-20T23:56:37.668Z,77.49
2019-01-20T23:59:41.258Z,77.48
